createdAt,value
2023-05-02T00:00:14.298Z,6.50
2023-05-02T00:03:04.252Z,8.00
2023-05-02T00:05:33.392Z,8.10
2023-05-02T00:08:02.086Z,10.10
2023-05-02T00:10:30.604Z,5.10
2023-05-02T00:12:59.148Z,7.30
2023-05-02T00:15:28.278Z,7.20
2023-05-02T00:17:57.184Z,8.90
2023-05-02T00:20:26.089Z,6.50
2023-05-02T00:22:57.229Z,6.30
2023-05-02T00:25:26.116Z,7.00
2023-05-02T00:27:55.638Z,7.00
2023-05-02T00:30:24.075Z,7.60
2023-05-02T00:32:54.588Z,7.10
2023-05-02T00:35:23.179Z,6.50
2023-05-02T00:37:51.624Z,9.10
2023-05-02T00:40:20.557Z,8.40
2023-05-02T00:42:49.271Z,6.40
2023-05-02T00:45:18.760Z,5.30
2023-05-02T00:47:47.516Z,9.60
2023-05-02T00:50:17.515Z,5.90
2023-05-02T00:52:46.379Z,5.40
2023-05-02T00:55:15.264Z,5.40
2023-05-02T00:57:44.350Z,3.90
2023-05-02T01:00:13.913Z,5.10
2023-05-02T01:02:55.912Z,4.50
2023-05-02T01:05:49.717Z,6.20
2023-05-02T01:09:00.812Z,5.50
2023-05-02T01:11:44.651Z,5.50
2023-05-02T01:14:15.582Z,6.90
2023-05-02T01:16:47.478Z,7.60
2023-05-02T01:19:38.689Z,5.50
2023-05-02T01:22:09.961Z,5.20
2023-05-02T01:24:53.612Z,7.30
2023-05-02T01:27:34.970Z,8.90
2023-05-02T01:30:05.226Z,4.60
2023-05-02T01:35:06.178Z,5.90
2023-05-02T01:37:37.171Z,6.20
2023-05-02T01:40:11.898Z,7.10
2023-05-02T01:42:42.870Z,8.80
2023-05-02T01:45:13.149Z,7.00
2023-05-02T01:50:17.277Z,4.90
2023-05-02T01:52:50.062Z,5.00
2023-05-02T01:55:20.410Z,7.40
2023-05-02T01:57:51.100Z,6.50
2023-05-02T02:00:21.010Z,5.80
2023-05-02T02:02:52.627Z,4.60
2023-05-02T02:05:22.714Z,6.10
2023-05-02T02:07:51.201Z,5.90
2023-05-02T02:10:20.245Z,6.70
2023-05-02T02:12:54.838Z,4.90
2023-05-02T02:15:29.018Z,6.00
2023-05-02T02:18:05.381Z,7.90
2023-05-02T02:20:36.406Z,6.30
2023-05-02T02:23:08.920Z,6.50
2023-05-02T02:25:38.291Z,7.40
2023-05-02T02:28:08.047Z,6.90
2023-05-02T02:30:37.069Z,5.80
2023-05-02T02:33:06.218Z,7.70
2023-05-02T02:35:40.841Z,5.80
2023-05-02T02:38:24.228Z,6.40
2023-05-02T02:41:02.741Z,5.40
2023-05-02T02:43:44.242Z,10.80
2023-05-02T02:46:15.613Z,6.90
2023-05-02T02:48:56.298Z,7.00
2023-05-02T02:51:40.192Z,8.00
2023-05-02T02:54:32.574Z,6.20
2023-05-02T02:57:26.593Z,7.20
2023-05-02T03:00:09.221Z,7.80
2023-05-02T03:02:38.405Z,8.70
2023-05-02T03:05:08.350Z,9.90
2023-05-02T03:07:37.763Z,9.40
2023-05-02T03:10:07.816Z,6.00
2023-05-02T03:15:30.205Z,6.50
2023-05-02T03:17:59.126Z,11.50
2023-05-02T03:20:28.171Z,10.30
2023-05-02T03:22:57.649Z,9.40
2023-05-02T03:25:26.280Z,7.30
2023-05-02T03:27:57.984Z,7.60
2023-05-02T03:30:27.171Z,8.60
2023-05-02T03:32:57.330Z,10.20
2023-05-02T03:35:26.117Z,7.60
2023-05-02T03:37:55.599Z,11.10
2023-05-02T03:40:24.747Z,6.10
2023-05-02T03:42:53.217Z,7.70
2023-05-02T03:45:26.158Z,7.60
2023-05-02T03:47:54.808Z,6.50
2023-05-02T03:50:23.708Z,8.20
2023-05-02T03:52:53.645Z,8.20
2023-05-02T03:55:25.011Z,8.80
2023-05-02T03:57:54.964Z,8.60
2023-05-02T04:00:24.123Z,12.30
2023-05-02T04:02:56.362Z,10.50
2023-05-02T04:05:27.979Z,10.90
2023-05-02T04:07:57.873Z,7.60
2023-05-02T04:10:26.770Z,8.80
2023-05-02T04:12:58.468Z,8.00
2023-05-02T04:15:28.121Z,11.10
2023-05-02T04:17:58.886Z,7.00
2023-05-02T04:20:28.110Z,45.10
2023-05-02T04:22:56.888Z,45.80
2023-05-02T04:25:25.687Z,42.50
2023-05-02T04:27:57.315Z,21.30
2023-05-02T04:30:26.861Z,12.40
2023-05-02T04:33:01.043Z,13.50
2023-05-02T04:35:33.371Z,23.00
2023-05-02T04:38:02.194Z,12.70
2023-05-02T04:40:30.859Z,17.60
2023-05-02T04:43:04.344Z,17.80
2023-05-02T04:45:44.179Z,12.90
2023-05-02T04:48:18.469Z,17.50
2023-05-02T04:50:47.384Z,22.20
2023-05-02T04:53:15.776Z,17.20
2023-05-02T04:55:45.410Z,27.00
2023-05-02T04:58:14.712Z,49.50
2023-05-02T05:00:44.680Z,34.40
2023-05-02T05:03:13.611Z,21.60
2023-05-02T05:05:43.138Z,30.30
2023-05-02T05:08:16.105Z,31.90
2023-05-02T05:10:44.988Z,19.60
2023-05-02T05:13:14.268Z,19.70
2023-05-02T05:15:45.123Z,17.70
2023-05-02T05:18:14.707Z,14.50
2023-05-02T05:20:43.567Z,16.80
2023-05-02T05:23:13.171Z,10.30
2023-05-02T05:25:43.530Z,11.00
2023-05-02T05:28:15.936Z,13.80
2023-05-02T05:30:44.581Z,16.60
2023-05-02T05:33:17.167Z,22.90
2023-05-02T05:35:46.070Z,22.70
2023-05-02T05:38:14.535Z,22.70
2023-05-02T05:40:44.857Z,17.90
2023-05-02T05:43:13.942Z,13.80
2023-05-02T05:45:42.859Z,14.60
2023-05-02T05:48:11.793Z,18.60
2023-05-02T05:50:44.658Z,18.00
2023-05-02T05:53:14.639Z,13.10
2023-05-02T05:55:44.316Z,20.80
2023-05-02T05:58:13.480Z,14.60
2023-05-02T06:00:43.425Z,11.10
2023-05-02T06:03:12.660Z,22.80
2023-05-02T06:05:42.204Z,13.50
2023-05-02T06:08:11.441Z,19.60
2023-05-02T06:10:40.099Z,18.00
2023-05-02T06:13:09.503Z,28.80
2023-05-02T06:15:42.230Z,25.40
2023-05-02T06:18:10.900Z,20.10
2023-05-02T06:20:39.408Z,24.00
2023-05-02T06:23:08.569Z,32.80
2023-05-02T06:25:40.646Z,25.60
2023-05-02T06:28:10.299Z,16.60
2023-05-02T06:30:41.484Z,17.20
2023-05-02T06:33:13.261Z,19.10
2023-05-02T06:35:41.724Z,26.50
2023-05-02T06:38:10.318Z,24.60
2023-05-02T06:40:45.657Z,30.30
2023-05-02T06:43:21.710Z,31.50
2023-05-02T06:45:54.527Z,19.50
2023-05-02T06:48:26.185Z,13.60
2023-05-02T06:50:57.340Z,16.00
2023-05-02T06:53:27.194Z,18.40
2023-05-02T06:55:56.151Z,12.30
2023-05-02T06:58:27.382Z,16.90
2023-05-02T07:00:55.922Z,16.40
2023-05-02T07:03:24.780Z,12.60
2023-05-02T07:05:53.705Z,11.50
2023-05-02T07:08:24.258Z,11.00
2023-05-02T07:10:55.328Z,11.30
2023-05-02T07:13:23.932Z,11.60
2023-05-02T07:15:53.719Z,15.00
2023-05-02T07:18:23.089Z,12.00
2023-05-02T07:20:51.880Z,7.60
2023-05-02T07:23:20.986Z,10.10
2023-05-02T07:25:52.441Z,12.60
2023-05-02T07:28:21.498Z,24.40
2023-05-02T07:30:49.908Z,23.40
2023-05-02T07:33:18.899Z,11.00
2023-05-02T07:35:47.946Z,10.50
2023-05-02T07:38:16.514Z,12.60
2023-05-02T07:40:47.106Z,12.60
2023-05-02T07:43:16.788Z,11.40
2023-05-02T07:45:45.401Z,8.70
2023-05-02T07:48:14.405Z,16.50
2023-05-02T07:50:43.624Z,7.70
2023-05-02T07:53:15.499Z,7.70
2023-05-02T07:55:45.810Z,8.50
2023-05-02T07:58:15.676Z,10.10
2023-05-02T08:00:44.726Z,10.60
2023-05-02T08:03:16.756Z,10.10
2023-05-02T08:05:46.306Z,9.80
2023-05-02T08:08:15.186Z,8.80
2023-05-02T08:10:43.926Z,12.60
2023-05-02T08:15:43.167Z,18.80
2023-05-02T08:18:12.310Z,11.10
2023-05-02T08:20:41.268Z,10.30
2023-05-02T08:23:09.959Z,9.30
2023-05-02T08:25:38.553Z,9.10
2023-05-02T08:28:07.277Z,9.10
2023-05-02T08:30:38.152Z,10.40
2023-05-02T08:33:07.981Z,11.30
2023-05-02T08:35:36.874Z,13.80
2023-05-02T08:38:05.899Z,9.50
2023-05-02T08:40:42.359Z,15.40
2023-05-02T08:43:13.476Z,11.20
2023-05-02T08:45:44.364Z,11.70
2023-05-02T08:48:15.317Z,16.00
2023-05-02T08:50:46.983Z,11.50
2023-05-02T08:53:17.011Z,10.20
2023-05-02T08:55:47.251Z,14.50
2023-05-02T08:58:17.749Z,12.10
2023-05-02T09:00:48.614Z,11.60
2023-05-02T09:03:33.976Z,11.70
2023-05-02T09:06:15.019Z,25.70
2023-05-02T09:08:45.655Z,11.40
2023-05-02T09:11:15.542Z,10.80
2023-05-02T09:13:52.248Z,13.00
2023-05-02T09:16:27.248Z,12.70
2023-05-02T09:18:58.420Z,12.00
2023-05-02T09:21:40.348Z,10.90
2023-05-02T09:24:20.512Z,12.90
2023-05-02T09:27:04.595Z,10.70
2023-05-02T09:29:39.366Z,15.10
2023-05-02T09:32:08.231Z,10.50
2023-05-02T09:34:39.273Z,9.70
2023-05-02T09:37:08.204Z,12.40
2023-05-02T09:39:37.297Z,7.60
2023-05-02T09:42:06.169Z,9.50
2023-05-02T09:44:38.784Z,15.40
2023-05-02T09:47:08.985Z,13.70
2023-05-02T09:52:17.799Z,15.80
2023-05-02T09:54:53.009Z,9.90
2023-05-02T09:57:22.307Z,9.70
2023-05-02T09:59:59.023Z,13.20
2023-05-02T10:02:30.794Z,17.90
2023-05-02T10:05:02.667Z,12.40
2023-05-02T10:07:33.649Z,11.20
2023-05-02T10:10:05.837Z,18.00
2023-05-02T10:12:34.875Z,11.80
2023-05-02T10:15:05.252Z,15.20
2023-05-02T10:17:42.803Z,24.90
2023-05-02T10:20:17.614Z,11.30
2023-05-02T10:22:49.600Z,7.10
2023-05-02T10:25:18.556Z,12.30
2023-05-02T10:27:48.033Z,9.40
2023-05-02T10:30:17.792Z,8.30
2023-05-02T10:32:48.995Z,13.60
2023-05-02T10:35:18.624Z,9.30
2023-05-02T10:37:50.062Z,11.60
2023-05-02T10:40:18.816Z,11.60
2023-05-02T10:42:52.136Z,8.50
2023-05-02T10:45:34.998Z,12.20
2023-05-02T10:48:25.830Z,11.40
2023-05-02T10:50:57.879Z,9.90
2023-05-02T10:53:37.864Z,11.80
2023-05-02T10:56:23.432Z,14.90
2023-05-02T10:59:28.303Z,11.60
2023-05-02T11:01:58.173Z,13.20
2023-05-02T11:04:27.886Z,14.20
2023-05-02T11:06:59.965Z,13.20
2023-05-02T11:09:28.592Z,10.40
2023-05-02T11:11:57.851Z,16.00
2023-05-02T11:14:26.575Z,16.10
2023-05-02T11:16:59.149Z,13.40
2023-05-02T11:19:31.423Z,14.90
2023-05-02T11:22:27.542Z,14.80
2023-05-02T11:24:56.816Z,18.30
2023-05-02T11:27:31.321Z,11.30
2023-05-02T11:30:02.328Z,14.50
2023-05-02T11:32:46.531Z,11.90
2023-05-02T11:35:26.712Z,7.90
2023-05-02T11:40:28.795Z,15.00
2023-05-02T11:42:59.385Z,9.90
2023-05-02T11:45:38.212Z,10.80
2023-05-02T11:48:08.148Z,11.80
2023-05-02T11:50:53.400Z,10.10
2023-05-02T11:53:27.010Z,13.10
2023-05-02T11:55:58.227Z,15.80
2023-05-02T11:58:33.034Z,8.60
2023-05-02T12:01:15.997Z,13.40
2023-05-02T12:03:45.804Z,8.90
2023-05-02T12:06:19.681Z,9.20
2023-05-02T12:08:49.574Z,12.60
2023-05-02T12:11:18.309Z,10.50
2023-05-02T12:13:50.968Z,12.80
2023-05-02T12:16:20.010Z,9.20
2023-05-02T12:18:51.082Z,13.30
2023-05-02T12:21:20.254Z,12.00
2023-05-02T12:23:49.009Z,11.50
2023-05-02T12:26:22.501Z,14.30
2023-05-02T12:28:55.796Z,40.40
2023-05-02T12:31:26.156Z,12.00
2023-05-02T12:33:58.164Z,11.90
2023-05-02T12:36:31.185Z,8.70
2023-05-02T12:39:00.460Z,10.50
2023-05-02T12:41:33.304Z,12.20
2023-05-02T12:44:02.377Z,9.70
2023-05-02T12:46:32.181Z,10.40
2023-05-02T12:49:12.481Z,12.70
2023-05-02T12:51:41.768Z,13.10
2023-05-02T12:54:21.559Z,13.00
2023-05-02T12:56:52.460Z,11.90
2023-05-02T12:59:34.025Z,13.40
2023-05-02T13:02:03.197Z,8.80
2023-05-02T13:04:41.530Z,8.60
2023-05-02T13:07:11.590Z,10.80
2023-05-02T13:09:40.434Z,15.70
2023-05-02T13:12:09.912Z,9.50
2023-05-02T13:14:38.673Z,11.70
2023-05-02T13:17:10.689Z,10.50
2023-05-02T13:19:44.462Z,10.00
2023-05-02T13:22:29.518Z,7.10
2023-05-02T13:24:58.375Z,7.30
2023-05-02T13:27:27.268Z,9.30
2023-05-02T13:29:56.122Z,8.10
2023-05-02T13:32:24.684Z,7.90
2023-05-02T13:34:53.303Z,7.30
2023-05-02T13:37:22.341Z,9.20
2023-05-02T13:39:51.127Z,10.30
2023-05-02T13:42:26.266Z,9.50
2023-05-02T13:44:55.000Z,4.20
2023-05-02T13:47:23.770Z,7.50
2023-05-02T13:49:53.126Z,5.00
2023-05-02T13:52:55.949Z,6.30
2023-05-02T13:55:23.452Z,6.20
2023-05-02T13:57:53.130Z,8.80
2023-05-02T14:00:21.904Z,5.90
2023-05-02T14:02:51.369Z,7.70
2023-05-02T14:05:20.129Z,4.80
2023-05-02T14:07:51.602Z,4.90
2023-05-02T14:10:21.055Z,6.80
2023-05-02T14:12:49.794Z,9.20
2023-05-02T14:15:19.439Z,5.80
2023-05-02T14:17:49.934Z,9.70
2023-05-02T14:20:18.747Z,6.70
2023-05-02T14:22:47.585Z,6.60
2023-05-02T14:25:20.966Z,6.40
2023-05-02T14:27:50.848Z,6.40
2023-05-02T14:30:20.003Z,7.80
2023-05-02T14:32:48.759Z,10.40
2023-05-02T14:35:17.384Z,6.20
2023-05-02T14:37:47.365Z,8.10
2023-05-02T14:40:16.329Z,5.80
2023-05-02T14:42:44.853Z,6.20
2023-05-02T14:45:13.570Z,13.40
2023-05-02T14:47:42.296Z,11.50
2023-05-02T14:50:11.494Z,15.70
2023-05-02T14:52:41.011Z,5.60
2023-05-02T14:55:10.185Z,7.00
2023-05-02T14:57:38.909Z,7.30
2023-05-02T15:00:08.945Z,6.50
2023-05-02T15:02:38.351Z,5.60
2023-05-02T15:05:12.413Z,17.10
2023-05-02T15:07:41.863Z,7.60
2023-05-02T15:10:11.090Z,8.60
2023-05-02T15:12:39.583Z,6.40
2023-05-02T15:15:09.522Z,8.00
2023-05-02T15:17:38.600Z,10.40
2023-05-02T15:20:08.936Z,8.60
2023-05-02T15:22:37.915Z,5.70
2023-05-02T15:25:07.287Z,6.70
2023-05-02T15:27:35.870Z,7.90
2023-05-02T15:30:07.146Z,7.60
2023-05-02T15:32:36.020Z,7.10
2023-05-02T15:35:09.078Z,10.20
2023-05-02T15:37:37.824Z,6.70
2023-05-02T15:40:07.338Z,12.40
2023-05-02T15:42:37.905Z,8.90
2023-05-02T15:45:07.153Z,10.90
2023-05-02T15:47:35.971Z,16.60
2023-05-02T15:50:06.203Z,17.60
2023-05-02T15:52:35.172Z,15.70
2023-05-02T15:55:04.723Z,14.70
2023-05-02T15:57:33.871Z,18.60
2023-05-02T16:00:03.021Z,16.40
2023-05-02T16:02:32.825Z,22.50
2023-05-02T16:05:03.625Z,13.60
2023-05-02T16:07:32.544Z,12.10
2023-05-02T16:10:01.320Z,11.30
2023-05-02T16:12:30.172Z,19.40
2023-05-02T16:14:59.483Z,21.90
2023-05-02T16:17:28.691Z,15.40
2023-05-02T16:19:58.731Z,8.10
2023-05-02T16:22:28.670Z,8.90
2023-05-02T16:24:57.508Z,14.70
2023-05-02T16:27:26.535Z,12.00
2023-05-02T16:29:55.195Z,11.90
2023-05-02T16:32:24.486Z,11.90
2023-05-02T16:34:54.433Z,13.80
2023-05-02T16:37:22.954Z,11.50
2023-05-02T16:39:51.866Z,11.60
2023-05-02T16:42:20.659Z,14.00
2023-05-02T16:44:49.175Z,24.20
2023-05-02T16:47:18.502Z,46.00
2023-05-02T16:49:47.960Z,26.90
2023-05-02T16:52:17.223Z,38.30
2023-05-02T16:54:45.910Z,26.00
2023-05-02T16:57:20.041Z,22.90
2023-05-02T16:59:50.399Z,49.20
2023-05-02T17:02:23.965Z,20.60
2023-05-02T17:05:14.079Z,19.20
2023-05-02T17:08:02.775Z,15.20
2023-05-02T17:10:56.048Z,20.20
2023-05-02T17:16:49.436Z,23.70
2023-05-02T17:19:43.963Z,24.10
2023-05-02T17:22:40.321Z,15.30
2023-05-02T17:25:34.518Z,18.80
2023-05-02T17:28:25.135Z,17.90
2023-05-02T17:31:18.911Z,14.90
2023-05-02T17:34:07.955Z,12.00
2023-05-02T17:36:55.169Z,13.00
2023-05-02T17:39:50.012Z,9.30
2023-05-02T17:42:47.475Z,19.90
2023-05-02T17:45:18.660Z,16.90
2023-05-02T17:47:47.613Z,14.80
2023-05-02T17:50:16.433Z,10.40
2023-05-02T17:52:45.326Z,8.40
2023-05-02T17:55:14.225Z,11.30
2023-05-02T17:57:42.768Z,8.50
2023-05-02T18:00:12.111Z,8.30
2023-05-02T18:02:41.106Z,10.80
2023-05-02T18:05:09.920Z,11.00
2023-05-02T18:07:38.708Z,13.10
2023-05-02T18:10:08.300Z,10.60
2023-05-02T18:12:36.821Z,10.40
2023-05-02T18:15:06.722Z,11.40
2023-05-02T18:20:07.346Z,12.40
2023-05-02T18:22:36.488Z,10.80
2023-05-02T18:25:06.087Z,24.50
2023-05-02T18:27:35.668Z,36.40
2023-05-02T18:30:04.874Z,65.50
2023-05-02T18:32:35.350Z,33.40
2023-05-02T18:35:06.671Z,32.80
2023-05-02T18:37:35.725Z,23.30
2023-05-02T18:40:05.102Z,23.10
2023-05-02T18:42:33.574Z,18.60
2023-05-02T18:45:06.196Z,15.10
2023-05-02T18:47:35.207Z,13.90
2023-05-02T18:50:05.191Z,12.20
2023-05-02T18:52:36.837Z,31.90
2023-05-02T18:55:06.456Z,37.90
2023-05-02T18:57:35.347Z,31.10
2023-05-02T19:00:06.612Z,13.00
2023-05-02T19:02:37.633Z,10.90
2023-05-02T19:05:09.563Z,27.40
2023-05-02T19:07:38.761Z,10.90
2023-05-02T19:10:07.602Z,11.10
2023-05-02T19:12:40.738Z,12.10
2023-05-02T19:15:11.090Z,18.00
2023-05-02T19:17:40.410Z,16.50
2023-05-02T19:20:10.932Z,12.60
2023-05-02T19:22:39.941Z,12.30
2023-05-02T19:25:09.854Z,13.50
2023-05-02T19:27:40.548Z,12.40
2023-05-02T19:30:12.719Z,10.20
2023-05-02T19:32:42.021Z,8.20
2023-05-02T19:35:10.819Z,11.60
2023-05-02T19:37:40.050Z,7.20
2023-05-02T19:40:12.662Z,8.00
2023-05-02T19:42:41.625Z,8.50
2023-05-02T19:45:16.713Z,8.60
2023-05-02T19:47:46.429Z,8.20
2023-05-02T19:50:14.934Z,8.70
2023-05-02T19:52:44.925Z,9.70
2023-05-02T19:55:14.090Z,6.70
2023-05-02T19:57:44.902Z,6.20
2023-05-02T20:00:14.821Z,7.90
2023-05-02T20:02:43.511Z,8.70
2023-05-02T20:05:12.650Z,11.00
2023-05-02T20:07:42.005Z,23.70
2023-05-02T20:10:10.952Z,34.80
2023-05-02T20:12:40.112Z,11.70
2023-05-02T20:15:09.098Z,9.90
2023-05-02T20:17:37.736Z,10.20
2023-05-02T20:20:09.111Z,11.00
2023-05-02T20:25:10.495Z,7.40
2023-05-02T20:27:39.361Z,9.70
2023-05-02T20:30:10.486Z,9.10
2023-05-02T20:32:39.590Z,8.60
2023-05-02T20:35:08.511Z,12.00
2023-05-02T20:37:37.519Z,9.80
2023-05-02T20:40:10.128Z,8.40
2023-05-02T20:42:40.592Z,18.30
2023-05-02T20:45:12.203Z,14.10
2023-05-02T20:47:41.014Z,14.10
2023-05-02T20:50:10.162Z,12.20
2023-05-02T20:52:39.549Z,9.90
2023-05-02T20:55:08.435Z,9.00
2023-05-02T20:57:36.984Z,9.60
2023-05-02T21:00:09.315Z,14.60
2023-05-02T21:02:37.912Z,9.30
2023-05-02T21:05:06.511Z,10.60
2023-05-02T21:07:35.128Z,9.10
2023-05-02T21:10:04.361Z,9.90
2023-05-02T21:12:33.090Z,10.60
2023-05-02T21:15:01.685Z,10.90
2023-05-02T21:17:30.343Z,12.40
2023-05-02T21:19:58.924Z,9.80
2023-05-02T21:22:27.842Z,11.10
2023-05-02T21:24:56.647Z,14.10
2023-05-02T21:27:25.133Z,11.20
2023-05-02T21:29:53.778Z,11.70
2023-05-02T21:32:23.001Z,12.80
2023-05-02T21:34:51.775Z,9.70
2023-05-02T21:37:20.319Z,10.40
2023-05-02T21:39:49.123Z,13.70
2023-05-02T21:42:17.563Z,14.60
2023-05-02T21:44:46.004Z,10.70
2023-05-02T21:47:15.116Z,13.50
2023-05-02T21:49:43.624Z,10.00
2023-05-02T21:52:12.144Z,8.30
2023-05-02T21:54:41.282Z,11.70
2023-05-02T21:57:10.026Z,13.20
2023-05-02T21:59:38.569Z,13.20
2023-05-02T22:02:07.344Z,14.20
2023-05-02T22:04:36.096Z,13.70
2023-05-02T22:07:04.575Z,16.30
2023-05-02T22:09:33.764Z,15.10
2023-05-02T22:12:03.126Z,14.60
2023-05-02T22:14:41.710Z,14.00
2023-05-02T22:17:14.213Z,15.00
2023-05-02T22:19:42.679Z,14.10
2023-05-02T22:22:11.482Z,12.00
2023-05-02T22:24:40.444Z,14.00
2023-05-02T22:27:08.893Z,11.60
2023-05-02T22:29:37.281Z,10.40
2023-05-02T22:32:07.163Z,9.30
2023-05-02T22:34:35.806Z,12.90
2023-05-02T22:37:04.526Z,23.20
2023-05-02T22:39:33.466Z,15.10
2023-05-02T22:42:01.805Z,12.10
2023-05-02T22:44:32.215Z,10.90
2023-05-02T22:47:02.865Z,13.60
2023-05-02T22:49:33.327Z,10.00
2023-05-02T22:52:02.886Z,9.00
2023-05-02T22:54:31.475Z,11.90
2023-05-02T22:57:00.605Z,9.10
2023-05-02T22:59:29.997Z,8.50
2023-05-02T23:02:02.709Z,15.70
2023-05-02T23:04:33.190Z,11.90
2023-05-02T23:09:30.582Z,13.50
2023-05-02T23:11:59.026Z,9.40
2023-05-02T23:14:27.602Z,12.40
2023-05-02T23:16:57.084Z,16.20
2023-05-02T23:19:26.167Z,12.70
2023-05-02T23:21:54.581Z,11.40
2023-05-02T23:24:23.915Z,11.80
2023-05-02T23:26:52.444Z,13.10
2023-05-02T23:29:21.026Z,10.50
2023-05-02T23:31:54.773Z,13.40
2023-05-02T23:34:23.433Z,10.70
2023-05-02T23:36:52.929Z,13.90
2023-05-02T23:39:22.293Z,11.40
2023-05-02T23:41:50.920Z,11.80
2023-05-02T23:44:19.733Z,15.00
2023-05-02T23:46:48.550Z,15.70
2023-05-02T23:49:17.059Z,12.00
2023-05-02T23:51:45.766Z,16.90
2023-05-02T23:54:14.305Z,15.00
2023-05-02T23:56:43.082Z,13.80
2023-05-02T23:59:11.795Z,12.10
